Albany, New York
Traffic Map
Current Weather Conditions
Albany, New York
Overcast Light Snow
Overcast
-3°
Feels Like: -3°
Wind Chill: -3° Ceiling: 3000
Heat Index: -3° Visibility: 3mi
Dew Point: -6° Wind: 3mph
Humidity: 78% Direction: 10° (N)
Pressure: 30.35in Gusts: 0mph
Raw Report DataKALB 211351Z 01003KT 3SM -SN BR BKN030 OVC034 M03/M06 A3035 RMK AO2 SLP281 VIS NW 2 P0000 T10281061 $
Traffic Incident Summary
Active as of:
Severity:
Category:
InformationThere was an issue retrieving the traffic information for this location. Please try a different location or try again shortly.
Advertisements
Track Severe Weather on mobile